|
公历农历对照

机场天气预报 (TAF)

机场天气预报 (TAF) 载述关于某个机场在预测期内预料会出现的气象要素。

香港天文台在 17 年 06 月 25 日 07 时 00 分最新发出的香港国际机场天气预报

TAF VHHH 242300Z 2500/2606 22010KT 8000 FEW015 SCT025 TX32/2506Z TX33/2606Z TN27/2522Z TEMPO 2500/2506 3000 SHRA FEW010CB SCT020 TEMPO 2518/2603 4000 SHRA=

(下次更新时间:17年06月25日13时00分)

机场天气预报电码经解码后:-

香港天文台发出 2017 年 06 月 25 日 00 协调世界时 至 2017 年 06 月 26 日 06 协调世界时 的机场天气预报:
 

时间(协调世界时) 能见度 天气状况 云层 云层高度
2017 年 06 月 25 日 00 时 至 2017 年 06 月 26 日 06 时 西南风 (220 o) 10 海里/小时 8 公里 无重要天气状况
1-2
3-4
1500 呎
2500 呎
2017 年 06 月 25 日 00 时 至 06 时 期间间中 西南风 (220 o) 10 海里/小时 3000 米 骤雨
1-2 积雨云
3-4
1000 呎
2000 呎
2017 年 06 月 25 日 18 时 至 2017 年 06 月 26 日 03 时 期间间中 西南风 (220 o) 10 海里/小时 4000 米 骤雨
1-2
3-4
1500 呎
2500 呎

时间(协调世界时) 气温
2017 年 06 月 25 日 06 时
最高32 oC
2017 年 06 月 26 日 06 时
最高33 oC
2017 年 06 月 25 日 22 时
最低27 oC

份: 云层是以估计天空被云遮蔽之总面积来评定。把天空分为八份,1 份即是八份之一的天空被云遮蔽,2 份即是八份之二的天空被云遮蔽,如此类推。
  0 份 = 天朗气清,1-2 份 = 稀薄云层,3-4 份 = 零散云层,5-7 份 = 疏松云层,8 份 = 天色阴暗。
若想进一步了解机场天气预报(TAF)的编码,请参看剖析TAF电码的意义
若想进一步了解云,请参看香港常见的云
 
香港国际机场航空天气报告资料 本港地区航空天气预报
 
版权及声明